Castalia, Ohio
Current Conditions -  °F | °C
As of 10:13 AM on Monday 24 Nov 2014 (Local Time) from KPCW Reporting Station
Light Rain Light Rain  
Wind Chill: 54°   Ceiling: 2100
Heat Index: 54°   Visibility: 2.5mi
Dew Point: 52°   Wind: 25mph
Humidity: 94%   Direction: 220°SW
Pressure: 29.21"   Gusts: NA
Location:  41.4°N, 82.81°W
Report Text: KPCW 241513Z AUTO 22022KT 2 1/2SM -RA BR FEW007 BKN021 OVC038 12/11 A2921
Loading
Personal Weather Stations






























Interactive Weather Map New forecast layout! Learn more

10-Day Weather Forecast

Advertisements
Track Severe Weather on mobile